createdAt,value
2019-04-01T00:02:10.710Z,47.57
2019-04-01T00:04:40.314Z,44.83
2019-04-01T00:07:11.347Z,50.43
2019-04-01T00:09:40.806Z,51.13
2019-04-01T00:12:10.226Z,49.10
2019-04-01T00:14:39.828Z,46.67
2019-04-01T00:17:10.614Z,45.73
2019-04-01T00:19:40.129Z,44.83
2019-04-01T00:22:10.908Z,43.97
2019-04-01T00:24:41.223Z,46.83
2019-04-01T00:27:10.632Z,43.90
2019-04-01T00:29:40.070Z,44.93
2019-04-01T00:32:09.746Z,40.83
2019-04-01T00:34:39.275Z,38.17
2019-04-01T00:37:10.240Z,46.07
2019-04-01T00:39:39.755Z,42.40
2019-04-01T00:42:12.385Z,42.47
2019-04-01T00:44:41.947Z,43.67
2019-04-01T00:47:11.426Z,42.77
2019-04-01T00:49:40.874Z,49.93
2019-04-01T00:52:10.286Z,46.60
2019-04-01T00:54:39.738Z,47.10
2019-04-01T00:57:09.278Z,48.40
2019-04-01T00:59:38.793Z,52.43
2019-04-01T01:02:08.279Z,50.10
2019-04-01T01:04:37.883Z,46.80
2019-04-01T01:07:08.930Z,47.13
2019-04-01T01:09:38.374Z,48.10
2019-04-01T01:12:08.171Z,50.37
2019-04-01T01:14:37.682Z,47.63
2019-04-01T01:17:08.473Z,45.13
2019-04-01T01:19:38.186Z,52.60
2019-04-01T01:22:07.662Z,48.00
2019-04-01T01:24:37.126Z,46.42
2019-04-01T01:27:08.206Z,46.23
2019-04-01T01:29:37.660Z,47.90
2019-04-01T01:32:07.138Z,45.03
2019-04-01T01:34:36.738Z,46.50
2019-04-01T01:37:06.158Z,49.33
2019-04-01T01:39:35.609Z,51.87
2019-04-01T01:42:05.149Z,44.90
2019-04-01T01:44:34.601Z,44.53
2019-04-01T01:47:05.723Z,46.88
2019-04-01T01:49:35.196Z,48.30
2019-04-01T01:52:04.693Z,48.97
2019-04-01T01:54:34.303Z,52.88
2019-04-01T01:57:03.810Z,49.27
2019-04-01T01:59:33.311Z,48.23
2019-04-01T02:02:04.506Z,48.83
2019-04-01T02:04:34.466Z,50.75
2019-04-01T02:07:04.086Z,46.77
2019-04-01T02:09:33.577Z,49.10
2019-04-01T02:12:03.029Z,43.60
2019-04-01T02:14:32.450Z,40.80
2019-04-01T02:17:03.368Z,50.40
2019-04-01T02:19:32.929Z,54.58
2019-04-01T02:22:02.530Z,50.47
2019-04-01T02:24:32.022Z,46.83
2019-04-01T02:27:02.954Z,45.25
2019-04-01T02:29:32.374Z,44.75
2019-04-01T02:32:03.197Z,48.38
2019-04-01T02:34:32.735Z,41.58
2019-04-01T02:37:03.500Z,39.95
2019-04-01T02:39:32.945Z,42.33
2019-04-01T02:42:02.654Z,44.13
2019-04-01T02:44:32.067Z,42.33
2019-04-01T02:47:02.899Z,39.20
2019-04-01T02:49:32.305Z,43.93
2019-04-01T02:52:01.762Z,41.87
2019-04-01T02:54:31.196Z,48.53
2019-04-01T02:57:00.716Z,46.10
2019-04-01T02:59:30.142Z,41.40
2019-04-01T03:02:00.967Z,45.92
2019-04-01T03:04:30.455Z,40.40
2019-04-01T03:07:01.373Z,40.23
2019-04-01T03:09:30.880Z,37.45
2019-04-01T03:12:01.921Z,46.08
2019-04-01T03:14:31.341Z,44.55
2019-04-01T03:17:02.263Z,38.87
2019-04-01T03:19:31.673Z,39.30
2019-04-01T03:22:01.165Z,44.20
2019-04-01T03:24:30.748Z,38.80
2019-04-01T03:27:01.472Z,44.05
2019-04-01T03:29:30.967Z,41.33
2019-04-01T03:32:01.856Z,43.10
2019-04-01T03:34:31.319Z,40.73
2019-04-01T03:37:02.038Z,41.40
2019-04-01T03:39:31.449Z,56.80
2019-04-01T03:42:00.902Z,56.65
2019-04-01T03:44:30.396Z,46.55
2019-04-01T03:47:01.203Z,45.23
2019-04-01T03:49:30.617Z,42.30
2019-04-01T03:52:01.435Z,41.63
2019-04-01T03:54:30.923Z,41.77
2019-04-01T03:57:01.504Z,42.87
2019-04-01T03:59:32.415Z,45.75
2019-04-01T04:02:02.028Z,40.25
2019-04-01T04:04:31.588Z,47.15
2019-04-01T04:07:01.139Z,48.63
2019-04-01T04:09:30.543Z,49.38
2019-04-01T04:12:00.046Z,57.58
2019-04-01T04:14:29.460Z,50.25
2019-04-01T04:17:00.391Z,43.73
2019-04-01T04:19:29.802Z,48.65
2019-04-01T04:21:59.251Z,43.48
2019-04-01T04:24:28.753Z,49.67
2019-04-01T04:26:58.362Z,44.30
2019-04-01T04:29:27.890Z,46.48
2019-04-01T04:31:57.376Z,48.08
2019-04-01T04:34:26.976Z,47.78
2019-04-01T04:36:57.730Z,42.43
2019-04-01T04:39:27.134Z,41.68
2019-04-01T04:41:57.957Z,38.73
2019-04-01T04:44:27.374Z,51.77
2019-04-01T04:46:56.829Z,50.58
2019-04-01T04:49:26.265Z,48.58
2019-04-01T04:51:57.067Z,47.83
2019-04-01T04:54:26.479Z,40.38
2019-04-01T04:56:57.482Z,48.55
2019-04-01T04:59:27.077Z,47.58
2019-04-01T05:01:57.821Z,41.50
2019-04-01T05:04:27.244Z,43.25
2019-04-01T05:06:56.702Z,37.80
2019-04-01T05:09:27.969Z,43.30
2019-04-01T05:11:57.369Z,38.38
2019-04-01T05:14:26.881Z,37.40
2019-04-01T05:16:57.796Z,36.30
2019-04-01T05:19:27.218Z,40.30
2019-04-01T05:21:56.922Z,39.50
2019-04-01T05:24:26.451Z,38.83
2019-04-01T05:26:57.835Z,39.30
2019-04-01T05:29:27.431Z,36.95
2019-04-01T05:31:58.345Z,38.13
2019-04-01T05:34:28.969Z,39.25
2019-04-01T05:36:58.559Z,39.30
2019-04-01T05:39:27.982Z,37.23
2019-04-01T05:41:58.975Z,39.63
2019-04-01T05:44:28.464Z,36.80
2019-04-01T05:46:59.450Z,34.85
2019-04-01T05:49:28.874Z,38.02
2019-04-01T05:51:58.322Z,34.48
2019-04-01T05:54:27.742Z,35.80
2019-04-01T05:56:57.202Z,37.67
2019-04-01T05:59:28.765Z,32.40
2019-04-01T06:01:59.542Z,30.13
2019-04-01T06:04:28.969Z,30.23
2019-04-01T06:06:58.607Z,33.07
2019-04-01T06:09:28.029Z,30.77
2019-04-01T06:11:58.944Z,29.67
2019-04-01T06:14:28.445Z,32.70
2019-04-01T06:16:57.959Z,32.83
2019-04-01T06:19:27.438Z,28.33
2019-04-01T06:21:58.522Z,32.93
2019-04-01T06:24:28.010Z,27.10
2019-04-01T06:26:58.934Z,24.43
2019-04-01T06:29:28.355Z,26.30
2019-04-01T06:31:57.839Z,24.40
2019-04-01T06:34:27.355Z,26.53
2019-04-01T06:36:56.831Z,21.33
2019-04-01T06:39:26.355Z,30.30
2019-04-01T06:41:55.825Z,36.30
2019-04-01T06:44:25.262Z,22.70
2019-04-01T06:46:56.155Z,18.93
2019-04-01T06:49:25.674Z,18.43
2019-04-01T06:51:56.354Z,21.20
2019-04-01T06:54:25.867Z,26.47
2019-04-01T06:56:55.346Z,21.07
2019-04-01T06:59:24.795Z,20.23
2019-04-01T07:01:55.679Z,18.50
2019-04-01T07:04:25.130Z,20.87
2019-04-01T07:06:54.617Z,18.80
2019-04-01T07:09:24.139Z,19.23
2019-04-01T07:11:53.632Z,21.40
2019-04-01T07:14:23.082Z,19.33
2019-04-01T07:16:53.870Z,16.63
2019-04-01T07:19:23.320Z,18.93
2019-04-01T07:21:54.391Z,15.17
2019-04-01T07:24:23.826Z,20.20
2019-04-01T07:26:53.243Z,16.53
2019-04-01T07:29:22.694Z,15.50
2019-04-01T07:31:53.579Z,14.83
2019-04-01T07:34:23.025Z,14.17
2019-04-01T07:36:53.814Z,14.67
2019-04-01T07:39:23.326Z,16.60
2019-04-01T07:41:52.808Z,15.87
2019-04-01T07:44:22.319Z,19.60
2019-04-01T07:46:51.806Z,15.97
2019-04-01T07:49:21.322Z,15.13
2019-04-01T07:51:52.125Z,18.23
2019-04-01T07:54:21.630Z,16.83
2019-04-01T07:56:52.510Z,17.60
2019-04-01T07:59:21.963Z,18.47
2019-04-01T08:01:52.941Z,15.30
2019-04-01T08:04:23.212Z,15.40
2019-04-01T08:06:52.747Z,16.17
2019-04-01T08:09:22.197Z,14.77
2019-04-01T08:11:52.892Z,14.80
2019-04-01T08:14:22.415Z,16.17
2019-04-01T08:16:51.898Z,14.03
2019-04-01T08:19:21.418Z,17.77
2019-04-01T08:21:52.454Z,18.20
2019-04-01T08:24:22.131Z,20.77
2019-04-01T08:26:51.609Z,20.13
2019-04-01T08:29:30.190Z,16.60
2019-04-01T08:31:54.323Z,14.10
2019-04-01T08:34:23.843Z,15.53
2019-04-01T08:36:53.356Z,15.33
2019-04-01T08:39:22.871Z,16.67
2019-04-01T08:41:52.360Z,14.13
2019-04-01T08:44:21.873Z,14.47
2019-04-01T08:46:51.366Z,16.20
2019-04-01T08:49:20.888Z,13.63
2019-04-01T08:51:51.569Z,13.17
2019-04-01T08:54:21.027Z,14.37
2019-04-01T08:56:50.514Z,15.77
2019-04-01T08:59:20.025Z,15.73
2019-04-01T09:01:51.045Z,16.03
2019-04-01T09:04:20.569Z,16.50
2019-04-01T09:06:49.983Z,15.23
2019-04-01T09:09:19.778Z,14.07
2019-04-01T09:11:50.465Z,13.23
2019-04-01T09:14:19.979Z,13.60
2019-04-01T09:16:49.390Z,13.60
2019-04-01T09:19:18.911Z,15.90
2019-04-01T09:21:48.400Z,13.33
2019-04-01T09:24:17.840Z,13.40
2019-04-01T09:26:47.317Z,14.50
2019-04-01T09:29:16.827Z,12.60
2019-04-01T09:31:47.606Z,12.73
2019-04-01T09:34:17.118Z,14.10
2019-04-01T09:36:46.613Z,15.20
2019-04-01T09:39:16.125Z,16.90
2019-04-01T09:41:45.612Z,15.93
2019-04-01T09:44:15.057Z,14.73
2019-04-01T09:46:48.839Z,14.83
2019-04-01T09:49:16.976Z,12.77
2019-04-01T09:51:49.155Z,13.70
2019-04-01T09:54:18.702Z,13.97
2019-04-01T09:56:48.200Z,14.87
2019-04-01T09:59:17.630Z,18.10
2019-04-01T10:01:47.115Z,13.20
2019-04-01T10:04:16.567Z,14.17
2019-04-01T10:06:45.974Z,14.23
2019-04-01T10:09:15.423Z,14.40
2019-04-01T10:11:44.990Z,16.10
2019-04-01T10:14:14.453Z,16.70
2019-04-01T10:16:43.865Z,13.50
2019-04-01T10:19:13.389Z,14.73
2019-04-01T10:21:45.265Z,13.90
2019-04-01T10:24:13.999Z,15.83
2019-04-01T10:26:43.477Z,15.50
2019-04-01T10:29:12.929Z,15.70
2019-04-01T10:31:42.329Z,14.40
2019-04-01T10:34:11.950Z,15.20
2019-04-01T10:36:41.431Z,15.83
2019-04-01T10:39:10.923Z,14.03
2019-04-01T10:41:41.644Z,13.57
2019-04-01T10:44:11.122Z,15.57
2019-04-01T10:46:41.025Z,16.00
2019-04-01T10:49:10.485Z,15.53
2019-04-01T10:51:41.219Z,16.07
2019-04-01T10:54:10.714Z,14.73
2019-04-01T10:56:41.527Z,15.40
2019-04-01T10:59:10.891Z,15.97
2019-04-01T11:01:40.361Z,16.20
2019-04-01T11:04:09.761Z,15.60
2019-04-01T11:06:40.573Z,17.50
2019-04-01T11:09:11.272Z,16.40
2019-04-01T11:11:42.162Z,15.63
2019-04-01T11:14:11.672Z,17.40
2019-04-01T11:16:41.110Z,16.33
2019-04-01T11:19:10.615Z,15.87
2019-04-01T11:21:41.322Z,16.30
2019-04-01T11:24:10.740Z,15.97
2019-04-01T11:26:41.658Z,15.13
2019-04-01T11:29:11.139Z,15.90
2019-04-01T11:31:40.655Z,15.20
2019-04-01T11:34:10.154Z,16.47
2019-04-01T11:36:39.669Z,18.13
2019-04-01T11:39:09.545Z,17.73
2019-04-01T11:41:40.389Z,15.70
2019-04-01T11:44:09.907Z,19.50
2019-04-01T11:46:39.379Z,20.37
2019-04-01T11:49:08.859Z,17.03
2019-04-01T11:51:40.463Z,16.83
2019-04-01T11:54:10.475Z,16.27
2019-04-01T11:56:41.864Z,17.93
2019-04-01T11:59:11.275Z,17.10
2019-04-01T12:01:42.000Z,17.70
2019-04-01T12:04:11.406Z,16.27
2019-04-01T12:06:42.327Z,16.70
2019-04-01T12:09:11.745Z,17.70
2019-04-01T12:11:41.187Z,17.77
2019-04-01T12:14:10.615Z,15.90
2019-04-01T12:16:41.330Z,18.13
2019-04-01T12:19:10.746Z,21.17
2019-04-01T12:21:41.566Z,18.83
2019-04-01T12:24:11.130Z,16.53
2019-04-01T12:26:41.941Z,16.93
2019-04-01T12:29:12.266Z,18.77
2019-04-01T12:31:42.007Z,18.43
2019-04-01T12:34:11.428Z,19.20
2019-04-01T12:36:40.862Z,17.93
2019-04-01T12:39:10.348Z,16.80
2019-04-01T12:41:41.054Z,16.83
2019-04-01T12:44:11.242Z,16.10
2019-04-01T12:46:42.385Z,15.37
2019-04-01T12:49:11.797Z,15.97
2019-04-01T12:51:41.319Z,17.60
2019-04-01T12:54:10.795Z,17.93
2019-04-01T12:56:40.309Z,17.73
2019-04-01T12:59:09.801Z,17.90
2019-04-01T13:01:39.230Z,17.93
2019-04-01T13:04:08.713Z,17.37
2019-04-01T13:06:39.532Z,18.77
2019-04-01T13:09:09.019Z,16.47
2019-04-01T13:11:40.006Z,18.87
2019-04-01T13:14:09.409Z,15.87
2019-04-01T13:16:40.130Z,14.60
2019-04-01T13:19:09.550Z,17.93
2019-04-01T13:21:39.905Z,15.60
2019-04-01T13:24:09.475Z,18.20
2019-04-01T13:26:38.924Z,17.07
2019-04-01T13:29:08.412Z,16.07
2019-04-01T13:31:39.225Z,16.50
2019-04-01T13:34:08.717Z,16.83
2019-04-01T13:36:38.231Z,17.60
2019-04-01T13:39:07.790Z,17.07
2019-04-01T13:41:42.687Z,16.30
2019-04-01T13:44:09.736Z,17.10
2019-04-01T13:46:39.257Z,18.07
2019-04-01T13:49:08.734Z,17.07
2019-04-01T13:51:43.039Z,18.43
2019-04-01T13:54:11.541Z,17.20
2019-04-01T13:56:43.056Z,19.17
2019-04-01T13:59:12.876Z,16.83
2019-04-01T14:01:43.646Z,17.03
2019-04-01T14:04:13.066Z,17.73
2019-04-01T14:06:42.578Z,17.90
2019-04-01T14:09:12.078Z,17.00
2019-04-01T14:11:42.992Z,19.60
2019-04-01T14:14:12.411Z,16.53
2019-04-01T14:16:43.231Z,16.50
2019-04-01T14:19:12.738Z,19.83
2019-04-01T14:21:42.192Z,16.27
2019-04-01T14:24:11.598Z,16.33
2019-04-01T14:26:41.343Z,18.00
2019-04-01T14:29:10.747Z,17.20
2019-04-01T14:31:41.462Z,17.40
2019-04-01T14:34:13.839Z,17.33
2019-04-01T14:36:43.305Z,17.90
2019-04-01T14:39:12.731Z,16.40
2019-04-01T14:41:43.447Z,18.53
2019-04-01T14:44:12.858Z,17.40
2019-04-01T14:46:43.567Z,18.87
2019-04-01T14:49:12.984Z,20.87
2019-04-01T14:51:42.615Z,17.77
2019-04-01T14:54:12.029Z,20.67
2019-04-01T14:56:41.537Z,19.83
2019-04-01T14:59:11.018Z,20.33
2019-04-01T15:01:40.536Z,18.57
2019-04-01T15:04:10.018Z,21.20
2019-04-01T15:06:39.531Z,20.20
2019-04-01T15:09:09.320Z,19.90
2019-04-01T15:11:40.060Z,19.63
2019-04-01T15:14:09.484Z,19.50
2019-04-01T15:16:40.205Z,20.63
2019-04-01T15:19:12.609Z,19.40
2019-04-01T15:21:42.083Z,19.03
2019-04-01T15:24:11.523Z,20.43
2019-04-01T15:26:41.006Z,20.20
2019-04-01T15:29:10.454Z,20.87
2019-04-01T15:31:39.857Z,18.60
2019-04-01T15:34:09.518Z,20.10
2019-04-01T15:36:39.277Z,20.07
2019-04-01T15:39:10.437Z,20.20
2019-04-01T15:41:40.518Z,21.23
2019-04-01T15:44:09.966Z,21.30
2019-04-01T15:46:39.443Z,21.20
2019-04-01T15:49:11.291Z,24.70
2019-04-01T15:51:39.996Z,21.87
2019-04-01T15:54:09.426Z,24.40
2019-04-01T15:56:41.679Z,20.43
2019-04-01T15:59:09.908Z,22.30
2019-04-01T16:01:39.321Z,21.50
2019-04-01T16:04:08.967Z,23.07
2019-04-01T16:06:38.353Z,21.90
2019-04-01T16:09:07.875Z,22.73
2019-04-01T16:11:38.473Z,20.73
2019-04-01T16:14:07.978Z,22.03
2019-04-01T16:16:37.571Z,22.33
2019-04-01T16:19:07.022Z,20.50
2019-04-01T16:21:37.797Z,21.07
2019-04-01T16:24:10.869Z,21.27
2019-04-01T16:26:38.418Z,21.00
2019-04-01T16:29:07.863Z,20.97
2019-04-01T16:31:38.543Z,20.90
2019-04-01T16:34:07.995Z,20.80
2019-04-01T16:36:38.719Z,21.23
2019-04-01T16:39:08.482Z,21.57
2019-04-01T16:41:37.982Z,20.50
2019-04-01T16:44:07.416Z,20.80
2019-04-01T16:46:36.902Z,23.07
2019-04-01T16:49:07.469Z,21.97
2019-04-01T16:51:41.203Z,21.43
2019-04-01T16:54:09.467Z,20.13
2019-04-01T16:56:40.153Z,21.47
2019-04-01T16:59:09.679Z,20.90
2019-04-01T17:01:41.643Z,21.07
2019-04-01T17:04:11.314Z,21.70
2019-04-01T17:06:40.723Z,22.40
2019-04-01T17:09:10.240Z,22.20
2019-04-01T17:11:41.028Z,20.43
2019-04-01T17:14:10.481Z,21.93
2019-04-01T17:16:40.001Z,22.03
2019-04-01T17:19:09.447Z,20.00
2019-04-01T17:21:40.239Z,21.17
2019-04-01T17:24:09.694Z,23.57
2019-04-01T17:27:03.342Z,25.83
2019-04-01T17:29:32.849Z,22.10
2019-04-01T17:32:03.535Z,21.80
2019-04-01T17:34:32.987Z,21.43
2019-04-01T17:37:03.677Z,23.40
2019-04-01T17:39:34.156Z,19.53
2019-04-01T17:42:05.349Z,20.87
2019-04-01T17:44:34.871Z,20.73
2019-04-01T17:47:06.314Z,27.50
2019-04-01T17:49:35.994Z,22.60
2019-04-01T17:52:06.883Z,19.37
2019-04-01T17:54:36.326Z,19.90
2019-04-01T17:57:05.746Z,19.80
2019-04-01T17:59:35.254Z,18.40
2019-04-01T18:02:09.279Z,19.17
2019-04-01T18:04:38.802Z,19.30
2019-04-01T18:07:08.291Z,17.80
2019-04-01T18:09:37.805Z,18.20
2019-04-01T18:12:07.298Z,19.10
2019-04-01T18:14:36.815Z,19.57
2019-04-01T18:17:06.242Z,18.50
2019-04-01T18:19:36.251Z,19.57
2019-04-01T18:22:05.959Z,20.10
2019-04-01T18:24:35.483Z,19.33
2019-04-01T18:27:06.271Z,17.63
2019-04-01T18:29:35.783Z,18.43
2019-04-01T18:32:05.272Z,18.90
2019-04-01T18:34:34.782Z,19.50
2019-04-01T18:37:04.266Z,35.93
2019-04-01T18:39:47.169Z,18.87
2019-04-01T18:42:06.185Z,18.87
2019-04-01T18:44:35.695Z,17.70
2019-04-01T18:47:06.491Z,18.37
2019-04-01T18:49:36.007Z,17.77
2019-04-01T18:52:06.895Z,21.37
2019-04-01T18:54:36.415Z,18.77
2019-04-01T18:57:07.203Z,19.77
2019-04-01T18:59:36.707Z,18.33
2019-04-01T19:02:07.597Z,18.00
2019-04-01T19:04:37.382Z,19.43
2019-04-01T19:07:06.918Z,21.83
2019-04-01T19:09:36.430Z,18.60
2019-04-01T19:12:07.432Z,21.00
2019-04-01T19:14:36.943Z,22.60
2019-04-01T19:17:06.426Z,18.03
2019-04-01T19:19:35.900Z,20.27
2019-04-01T19:22:05.421Z,22.80
2019-04-01T19:24:34.823Z,18.97
2019-04-01T19:27:05.527Z,18.73
2019-04-01T19:29:34.965Z,19.03
2019-04-01T19:32:04.380Z,18.27
2019-04-01T19:34:33.964Z,20.73
2019-04-01T19:37:03.458Z,19.13
2019-04-01T19:39:32.971Z,22.20
2019-04-01T19:42:02.522Z,19.10
2019-04-01T19:44:32.039Z,19.10
2019-04-01T19:47:02.742Z,18.70
2019-04-01T19:49:33.118Z,19.33
2019-04-01T19:52:02.845Z,19.60
2019-04-01T19:54:34.054Z,22.33
2019-04-01T19:57:04.381Z,22.90
2019-04-01T19:59:35.759Z,20.10
2019-04-01T20:02:09.291Z,24.80
2019-04-01T20:04:37.469Z,20.57
2019-04-01T20:07:09.844Z,23.60
2019-04-01T20:09:39.373Z,22.57
2019-04-01T20:12:10.055Z,19.10
2019-04-01T20:14:40.167Z,21.30
2019-04-01T20:17:10.159Z,19.13
2019-04-01T20:19:40.067Z,23.13
2019-04-01T20:22:09.514Z,23.17
2019-04-01T20:24:39.015Z,20.30
2019-04-01T20:27:09.742Z,22.83
2019-04-01T20:29:40.243Z,21.83
2019-04-01T20:32:17.049Z,20.40
2019-04-01T20:34:42.385Z,21.00
2019-04-01T20:37:11.840Z,19.10
2019-04-01T20:39:41.259Z,20.80
2019-04-01T20:42:10.713Z,18.80
2019-04-01T20:44:40.316Z,19.60
2019-04-01T20:47:10.831Z,17.70
2019-04-01T20:49:40.312Z,19.07
2019-04-01T20:52:09.845Z,18.07
2019-04-01T20:54:39.260Z,17.90
2019-04-01T20:57:10.185Z,17.13
2019-04-01T20:59:40.153Z,16.80
2019-04-01T21:02:11.810Z,16.77
2019-04-01T21:04:41.302Z,18.83
2019-04-01T21:07:10.832Z,16.60
2019-04-01T21:09:40.314Z,16.90
2019-04-01T21:12:09.781Z,14.40
2019-04-01T21:14:39.191Z,14.93
2019-04-01T21:17:08.714Z,15.10
2019-04-01T21:19:38.204Z,16.90
2019-04-01T21:22:08.094Z,17.20
2019-04-01T21:24:37.556Z,16.87
2019-04-01T21:27:08.478Z,14.50
2019-04-01T21:29:37.979Z,15.30
2019-04-01T21:32:07.502Z,16.57
2019-04-01T21:34:36.991Z,16.20
2019-04-01T21:37:07.817Z,15.33
2019-04-01T21:39:37.928Z,13.47
2019-04-01T21:42:08.822Z,14.70
2019-04-01T21:44:38.387Z,13.90
2019-04-01T21:47:09.327Z,14.33
2019-04-01T21:49:38.795Z,13.97
2019-04-01T21:52:09.726Z,15.63
2019-04-01T21:54:39.217Z,16.07
2019-04-01T21:57:08.706Z,13.23
2019-04-01T21:59:38.165Z,13.50
2019-04-01T22:02:07.855Z,13.73
2019-04-01T22:04:37.375Z,15.10
2019-04-01T22:07:06.859Z,13.60
2019-04-01T22:09:36.379Z,13.03
2019-04-01T22:12:07.167Z,16.60
2019-04-01T22:14:36.688Z,14.73
2019-04-01T22:17:07.474Z,12.17
2019-04-01T22:19:36.993Z,14.67
2019-04-01T22:22:06.474Z,13.00
2019-04-01T22:24:36.000Z,14.13
2019-04-01T22:27:05.487Z,27.03
2019-04-01T22:29:35.701Z,14.77
2019-04-01T22:32:06.401Z,13.33
2019-04-01T22:34:35.842Z,17.80
2019-04-01T22:37:05.391Z,14.10
2019-04-01T22:39:34.905Z,15.07
2019-04-01T22:42:05.861Z,16.37
2019-04-01T22:44:35.379Z,13.80
2019-04-01T22:47:06.183Z,14.73
2019-04-01T22:49:35.667Z,14.63
2019-04-01T22:52:06.901Z,13.67
2019-04-01T22:54:36.390Z,13.53
2019-04-01T22:57:07.171Z,13.80
2019-04-01T22:59:36.610Z,14.23
2019-04-01T23:02:06.099Z,13.37
2019-04-01T23:04:36.955Z,13.73
2019-04-01T23:07:06.689Z,15.23
2019-04-01T23:09:36.204Z,14.90
2019-04-01T23:12:07.079Z,13.53
2019-04-01T23:14:36.528Z,14.13
2019-04-01T23:17:05.946Z,12.83
2019-04-01T23:19:35.406Z,15.77
2019-04-01T23:22:05.193Z,13.93
2019-04-01T23:24:34.706Z,13.93
2019-04-01T23:27:05.599Z,14.90
2019-04-01T23:29:35.135Z,14.37
2019-04-01T23:32:06.013Z,13.17
2019-04-01T23:34:35.523Z,13.40
2019-04-01T23:37:05.046Z,16.10
2019-04-01T23:39:34.713Z,14.17
2019-04-01T23:42:05.541Z,13.90
2019-04-01T23:44:35.029Z,12.40
2019-04-01T23:47:05.944Z,16.20
2019-04-01T23:49:35.430Z,13.97
2019-04-01T23:52:06.147Z,14.13
2019-04-01T23:54:35.622Z,12.60
2019-04-01T23:57:06.337Z,14.73
2019-04-01T23:59:35.816Z,13.33
